createdAt,value
2018-01-21T00:01:19.921Z,3.40
2018-01-21T00:04:00.522Z,3.70
2018-01-21T00:06:27.946Z,3.60
2018-01-21T00:08:54.465Z,3.40
2018-01-21T00:11:20.963Z,3.70
2018-01-21T00:13:47.836Z,3.70
2018-01-21T00:16:14.216Z,3.70
2018-01-21T00:18:40.700Z,3.70
2018-01-21T00:21:08.069Z,3.80
2018-01-21T00:23:34.606Z,3.60
2018-01-21T00:26:00.942Z,3.70
2018-01-21T00:28:27.354Z,3.60
2018-01-21T00:30:54.093Z,3.50
2018-01-21T00:33:20.651Z,3.80
2018-01-21T00:35:47.085Z,3.80
2018-01-21T00:38:13.483Z,3.90
2018-01-21T00:40:40.145Z,3.70
2018-01-21T00:43:07.289Z,3.90
2018-01-21T00:45:33.644Z,3.80
2018-01-21T00:48:00.275Z,3.80
2018-01-21T00:50:26.755Z,3.70
2018-01-21T00:52:53.552Z,3.80
2018-01-21T00:55:20.447Z,4.00
2018-01-21T00:57:46.910Z,3.50
2018-01-21T01:00:13.777Z,3.90
2018-01-21T01:02:40.281Z,3.70
2018-01-21T01:05:07.180Z,3.70
2018-01-21T01:07:33.887Z,3.80
2018-01-21T01:10:01.590Z,3.70
2018-01-21T01:12:28.083Z,3.80
2018-01-21T01:14:54.493Z,3.80
2018-01-21T01:17:20.966Z,3.70
2018-01-21T01:19:47.416Z,4.00
2018-01-21T01:22:14.363Z,3.50
2018-01-21T01:24:40.862Z,3.90
2018-01-21T01:27:07.690Z,4.00
2018-01-21T01:29:34.215Z,3.50
2018-01-21T01:32:00.762Z,4.00
2018-01-21T01:34:27.456Z,4.00
2018-01-21T01:36:54.211Z,3.90
2018-01-21T01:39:21.041Z,3.60
2018-01-21T01:41:48.042Z,3.80
2018-01-21T01:44:15.345Z,3.90
2018-01-21T01:46:42.268Z,3.80
2018-01-21T01:49:08.762Z,3.90
2018-01-21T01:51:35.562Z,3.90
2018-01-21T01:54:02.992Z,3.60
2018-01-21T01:56:29.673Z,4.10
2018-01-21T01:58:56.094Z,4.30
2018-01-21T02:01:22.800Z,3.80
2018-01-21T02:03:49.209Z,3.60
2018-01-21T02:06:15.658Z,3.90
2018-01-21T02:08:42.207Z,3.90
2018-01-21T02:11:08.672Z,3.80
2018-01-21T02:13:35.359Z,3.90
2018-01-21T02:16:01.845Z,4.00
2018-01-21T02:18:28.356Z,3.70
2018-01-21T02:20:54.763Z,3.50
2018-01-21T02:23:21.220Z,3.80
2018-01-21T02:25:47.744Z,4.00
2018-01-21T02:28:14.198Z,3.70
2018-01-21T02:33:43.184Z,3.60
2018-01-21T02:36:09.682Z,3.80
2018-01-21T02:38:36.130Z,3.70
2018-01-21T02:41:03.689Z,3.80
2018-01-21T02:43:30.268Z,3.80
2018-01-21T02:45:56.712Z,3.80
2018-01-21T02:48:23.104Z,3.70
2018-01-21T02:50:49.575Z,4.30
2018-01-21T02:53:20.346Z,3.80
2018-01-21T02:55:46.909Z,3.70
2018-01-21T02:58:13.473Z,3.90
2018-01-21T03:00:39.857Z,3.80
2018-01-21T03:03:06.384Z,3.70
2018-01-21T03:05:32.775Z,3.50
2018-01-21T03:07:59.437Z,3.60
2018-01-21T03:10:26.232Z,3.70
2018-01-21T03:12:52.764Z,3.60
2018-01-21T03:15:19.101Z,3.50
2018-01-21T03:17:45.540Z,3.60
2018-01-21T03:20:12.200Z,3.50
2018-01-21T03:22:38.765Z,3.50
2018-01-21T03:25:05.314Z,3.50
2018-01-21T03:27:31.781Z,3.50
2018-01-21T03:29:58.654Z,3.60
2018-01-21T03:32:26.567Z,3.40
2018-01-21T03:34:52.970Z,3.60
2018-01-21T03:37:19.455Z,3.50
2018-01-21T03:39:45.891Z,3.60
2018-01-21T03:42:12.607Z,3.40
2018-01-21T03:44:38.984Z,3.00
2018-01-21T03:47:05.799Z,3.30
2018-01-21T03:49:33.500Z,3.20
2018-01-21T03:51:59.898Z,3.40
2018-01-21T03:54:26.431Z,3.50
2018-01-21T03:56:53.031Z,3.60
2018-01-21T03:59:19.290Z,3.40
2018-01-21T04:01:45.649Z,3.30
2018-01-21T04:04:12.033Z,3.60
2018-01-21T04:06:38.289Z,3.30
2018-01-21T04:09:04.684Z,3.20
2018-01-21T04:11:30.817Z,3.30
2018-01-21T04:13:57.182Z,3.30
2018-01-21T04:16:23.462Z,3.40
2018-01-21T04:18:50.478Z,3.30
2018-01-21T04:21:16.696Z,3.30
2018-01-21T04:23:43.152Z,3.10
2018-01-21T04:26:09.765Z,3.30
2018-01-21T04:28:36.268Z,3.60
2018-01-21T04:31:02.680Z,3.60
2018-01-21T04:33:29.884Z,3.40
2018-01-21T04:35:58.571Z,3.30
2018-01-21T04:38:25.214Z,3.30
2018-01-21T04:40:51.743Z,3.20
2018-01-21T04:43:18.220Z,3.40
2018-01-21T04:45:44.445Z,3.40
2018-01-21T04:48:10.727Z,3.40
2018-01-21T04:50:36.943Z,3.30
2018-01-21T04:53:03.517Z,3.20
2018-01-21T04:55:30.080Z,3.10
2018-01-21T04:57:56.770Z,3.30
2018-01-21T05:00:23.570Z,3.10
2018-01-21T05:02:50.083Z,3.10
2018-01-21T05:05:16.480Z,3.10
2018-01-21T05:07:42.850Z,3.20
2018-01-21T05:10:09.430Z,2.80
2018-01-21T05:12:36.316Z,3.10
2018-01-21T05:15:02.769Z,3.30
2018-01-21T05:17:30.168Z,3.30
2018-01-21T05:19:56.394Z,3.40
2018-01-21T05:22:22.550Z,2.90
2018-01-21T05:24:48.972Z,3.10
2018-01-21T05:27:15.376Z,3.10
2018-01-21T05:29:41.890Z,2.90
2018-01-21T05:32:08.097Z,3.30
2018-01-21T05:34:34.475Z,3.10
2018-01-21T05:37:00.994Z,3.00
2018-01-21T05:39:30.241Z,3.40
2018-01-21T05:41:56.446Z,3.20
2018-01-21T05:44:22.755Z,3.20
2018-01-21T05:46:49.207Z,3.10
2018-01-21T05:49:15.574Z,2.80
2018-01-21T05:51:41.868Z,3.00
2018-01-21T05:54:13.402Z,3.10
2018-01-21T05:59:54.671Z,3.30
2018-01-21T06:02:20.966Z,3.10
2018-01-21T06:04:48.192Z,2.90
2018-01-21T06:07:14.640Z,2.80
2018-01-21T06:09:41.061Z,2.90
2018-01-21T06:12:07.327Z,2.90
2018-01-21T06:14:33.448Z,2.90
2018-01-21T06:16:59.654Z,3.00
2018-01-21T06:19:25.972Z,3.20
2018-01-21T06:21:52.149Z,3.00
2018-01-21T06:24:18.307Z,3.00
2018-01-21T06:26:44.850Z,3.30
2018-01-21T06:29:11.119Z,2.90
2018-01-21T06:31:37.671Z,3.10
2018-01-21T06:34:03.914Z,3.10
2018-01-21T06:36:30.108Z,3.30
2018-01-21T06:38:56.271Z,3.10
2018-01-21T06:41:22.478Z,3.10
2018-01-21T06:43:48.866Z,3.10
2018-01-21T06:46:15.210Z,2.70
2018-01-21T06:48:41.390Z,3.10
2018-01-21T06:51:07.602Z,3.10
2018-01-21T06:53:33.775Z,3.20
2018-01-21T06:56:00.032Z,2.90
2018-01-21T07:01:19.201Z,3.10
2018-01-21T07:03:45.624Z,3.20
2018-01-21T07:06:12.978Z,3.30
2018-01-21T07:08:39.434Z,3.10
2018-01-21T07:11:05.827Z,3.00
2018-01-21T07:13:32.494Z,3.00
2018-01-21T07:15:59.068Z,2.90
2018-01-21T07:18:25.428Z,3.00
2018-01-21T07:20:52.006Z,3.00
2018-01-21T07:23:18.483Z,3.10
2018-01-21T07:25:45.960Z,3.10
2018-01-21T07:28:12.747Z,2.70
2018-01-21T07:30:40.334Z,3.30
2018-01-21T07:33:06.683Z,3.00
2018-01-21T07:35:33.148Z,3.00
2018-01-21T07:37:59.663Z,2.80
2018-01-21T07:40:26.154Z,3.10
2018-01-21T07:42:52.560Z,3.10
2018-01-21T07:45:18.919Z,3.10
2018-01-21T07:47:47.779Z,3.10
2018-01-21T07:50:14.104Z,3.10
2018-01-21T07:52:40.555Z,3.20
2018-01-21T07:55:06.936Z,3.10
2018-01-21T07:57:34.162Z,3.30
2018-01-21T08:00:00.696Z,3.20
2018-01-21T08:02:27.145Z,3.40
2018-01-21T08:04:54.152Z,3.30
2018-01-21T08:07:20.584Z,3.30
2018-01-21T08:09:46.986Z,3.40
2018-01-21T08:12:13.411Z,3.30
2018-01-21T08:14:39.796Z,3.20
2018-01-21T08:17:06.167Z,3.20
2018-01-21T08:19:32.660Z,3.20
2018-01-21T08:21:59.145Z,3.30
2018-01-21T08:24:25.537Z,3.20
2018-01-21T08:26:51.865Z,3.30
2018-01-21T08:29:18.220Z,3.30
2018-01-21T08:31:44.595Z,3.40
2018-01-21T08:34:17.941Z,3.10
2018-01-21T08:36:50.507Z,3.10
2018-01-21T08:39:23.014Z,3.30
2018-01-21T08:41:49.351Z,3.00
2018-01-21T08:44:15.571Z,3.20
2018-01-21T08:46:41.897Z,3.80
2018-01-21T08:49:08.340Z,3.30
2018-01-21T08:51:34.879Z,3.20
2018-01-21T08:54:01.039Z,3.30
2018-01-21T08:56:27.257Z,3.30
2018-01-21T08:58:53.476Z,3.30
2018-01-21T09:01:19.686Z,3.70
2018-01-21T09:03:45.920Z,3.50
2018-01-21T09:06:12.080Z,3.40
2018-01-21T09:08:38.309Z,3.50
2018-01-21T09:11:04.495Z,3.50
2018-01-21T09:13:30.678Z,3.50
2018-01-21T09:15:56.962Z,3.10
2018-01-21T09:18:23.144Z,3.50
2018-01-21T09:20:49.339Z,3.70
2018-01-21T09:23:15.539Z,3.50
2018-01-21T09:25:44.134Z,3.70
2018-01-21T09:28:10.360Z,3.70
2018-01-21T09:30:36.695Z,3.80
2018-01-21T09:33:02.978Z,3.60
2018-01-21T09:35:29.150Z,3.90
2018-01-21T09:37:55.327Z,3.50
2018-01-21T09:40:22.700Z,3.60
2018-01-21T09:42:49.456Z,3.60
2018-01-21T09:48:16.032Z,3.40
2018-01-21T09:50:53.765Z,3.70
2018-01-21T09:53:21.665Z,3.70
2018-01-21T09:55:49.575Z,3.60
2018-01-21T09:58:16.285Z,3.80
2018-01-21T10:00:42.896Z,3.80
2018-01-21T10:03:23.386Z,4.10
2018-01-21T10:08:48.969Z,3.80
2018-01-21T10:11:15.394Z,4.00
2018-01-21T10:13:43.831Z,3.40
2018-01-21T10:16:10.211Z,3.80
2018-01-21T10:18:37.378Z,3.80
2018-01-21T10:21:03.843Z,3.50
2018-01-21T10:23:30.294Z,3.70
2018-01-21T10:25:56.683Z,3.90
2018-01-21T10:28:23.078Z,4.40
2018-01-21T10:30:49.529Z,4.00
2018-01-21T10:33:15.937Z,4.10
2018-01-21T10:35:42.302Z,4.10
2018-01-21T10:38:08.745Z,4.10
2018-01-21T10:40:35.332Z,4.10
2018-01-21T10:43:01.750Z,4.40
2018-01-21T10:45:28.228Z,4.30
2018-01-21T10:47:54.647Z,4.20
2018-01-21T10:50:21.076Z,4.40
2018-01-21T10:52:47.646Z,4.20
2018-01-21T10:55:14.050Z,4.30
2018-01-21T10:57:40.375Z,3.90
2018-01-21T11:00:07.069Z,4.20
2018-01-21T11:02:33.540Z,4.50
2018-01-21T11:04:59.924Z,4.30
2018-01-21T11:07:26.484Z,4.50
2018-01-21T11:09:52.879Z,4.40
2018-01-21T11:12:19.232Z,4.40
2018-01-21T11:14:45.714Z,4.40
2018-01-21T11:17:11.955Z,4.50
2018-01-21T11:19:38.343Z,4.40
2018-01-21T11:22:04.926Z,4.10
2018-01-21T11:24:31.896Z,4.40
2018-01-21T11:26:58.299Z,4.70
2018-01-21T11:29:24.715Z,4.80
2018-01-21T11:31:51.139Z,4.80
2018-01-21T11:34:17.530Z,4.70
2018-01-21T11:36:43.959Z,4.50
2018-01-21T11:39:10.344Z,4.10
2018-01-21T11:41:36.827Z,4.40
2018-01-21T11:44:03.411Z,4.00
2018-01-21T11:46:30.198Z,4.70
2018-01-21T11:48:57.483Z,4.70
2018-01-21T11:51:27.022Z,4.70
2018-01-21T11:53:53.253Z,4.90
2018-01-21T11:56:19.439Z,4.60
2018-01-21T11:58:45.793Z,4.70
2018-01-21T12:01:11.991Z,5.00
2018-01-21T12:03:38.275Z,4.70
2018-01-21T12:06:04.479Z,4.60
2018-01-21T12:08:30.783Z,4.70
2018-01-21T12:10:58.475Z,4.50
2018-01-21T12:13:24.690Z,4.80
2018-01-21T12:15:50.906Z,5.10
2018-01-21T12:18:17.313Z,4.70
2018-01-21T12:20:43.563Z,4.60
2018-01-21T12:23:10.099Z,4.70
2018-01-21T12:25:36.740Z,4.40
2018-01-21T12:28:03.417Z,4.80
2018-01-21T12:30:31.436Z,5.10
2018-01-21T12:32:57.705Z,5.10
2018-01-21T12:35:24.036Z,4.80
2018-01-21T12:37:50.273Z,4.70
2018-01-21T12:40:16.689Z,4.70
2018-01-21T12:42:43.237Z,4.80
2018-01-21T12:45:09.413Z,4.80
2018-01-21T12:47:35.681Z,4.90
2018-01-21T12:50:01.913Z,5.20
2018-01-21T12:52:28.475Z,5.30
2018-01-21T12:54:56.056Z,5.30
2018-01-21T12:57:22.291Z,5.00
2018-01-21T12:59:48.733Z,5.30
2018-01-21T13:02:14.962Z,5.50
2018-01-21T13:04:41.231Z,5.60
2018-01-21T13:07:07.455Z,5.80
2018-01-21T13:09:33.734Z,5.70
2018-01-21T13:12:00.042Z,5.60
2018-01-21T13:14:26.211Z,5.70
2018-01-21T13:16:52.558Z,5.90
2018-01-21T13:19:19.228Z,5.70
2018-01-21T13:21:45.764Z,5.50
2018-01-21T13:24:12.065Z,5.50
2018-01-21T13:26:38.290Z,4.90
2018-01-21T13:29:04.482Z,5.20
2018-01-21T13:31:30.979Z,5.20
2018-01-21T13:33:57.509Z,5.10
2018-01-21T13:36:23.754Z,5.60
2018-01-21T13:38:50.036Z,5.20
2018-01-21T13:41:16.248Z,5.20
2018-01-21T13:43:43.821Z,5.20
2018-01-21T13:46:10.068Z,5.10
2018-01-21T13:48:36.233Z,5.20
2018-01-21T13:51:02.549Z,5.30
2018-01-21T13:53:28.902Z,5.40
2018-01-21T13:55:55.158Z,5.40
2018-01-21T13:58:22.146Z,5.30
2018-01-21T14:00:48.327Z,5.60
2018-01-21T14:03:14.628Z,5.40
2018-01-21T14:05:40.848Z,5.40
2018-01-21T14:08:07.056Z,5.30
2018-01-21T14:10:33.239Z,5.30
2018-01-21T14:12:59.483Z,5.40
2018-01-21T14:15:25.700Z,5.10
2018-01-21T14:17:51.931Z,5.50
2018-01-21T14:20:25.691Z,5.40
2018-01-21T14:22:51.912Z,5.30
2018-01-21T14:25:18.116Z,5.40
2018-01-21T14:27:44.413Z,5.50
2018-01-21T14:30:10.715Z,5.50
2018-01-21T14:32:38.015Z,5.50
2018-01-21T14:35:04.344Z,5.60
2018-01-21T14:37:30.673Z,5.90
2018-01-21T14:39:57.047Z,5.60
2018-01-21T14:42:23.292Z,5.60
2018-01-21T14:44:49.511Z,5.60
2018-01-21T14:47:15.715Z,5.50
2018-01-21T14:49:41.942Z,5.60
2018-01-21T14:52:08.264Z,5.70
2018-01-21T14:54:34.524Z,5.60
2018-01-21T14:57:00.727Z,5.60
2018-01-21T14:59:26.915Z,5.50
2018-01-21T15:01:53.124Z,5.60
2018-01-21T15:04:19.364Z,5.60
2018-01-21T15:06:46.368Z,5.70
2018-01-21T15:09:13.272Z,5.70
2018-01-21T15:11:39.477Z,5.70
2018-01-21T15:14:05.675Z,5.60
2018-01-21T15:16:32.018Z,5.50
2018-01-21T15:18:58.690Z,5.70
2018-01-21T15:21:24.890Z,5.30
2018-01-21T15:23:51.175Z,5.40
2018-01-21T15:26:17.445Z,5.20
2018-01-21T15:28:43.643Z,5.30
2018-01-21T15:31:09.900Z,5.30
2018-01-21T15:33:36.290Z,5.30
2018-01-21T15:36:02.784Z,5.30
2018-01-21T15:38:29.389Z,5.50
2018-01-21T15:40:57.457Z,5.40
2018-01-21T15:43:23.657Z,5.30
2018-01-21T15:45:50.042Z,5.30
2018-01-21T15:48:17.201Z,5.60
2018-01-21T15:50:43.619Z,5.30
2018-01-21T15:53:09.845Z,5.50
2018-01-21T15:55:36.031Z,5.30
2018-01-21T15:58:03.028Z,5.20
2018-01-21T16:00:29.385Z,5.20
2018-01-21T16:02:55.887Z,5.30
2018-01-21T16:05:22.257Z,5.40
2018-01-21T16:07:48.768Z,5.20
2018-01-21T16:12:53.500Z,5.20
2018-01-21T16:15:20.794Z,5.20
2018-01-21T16:17:50.784Z,5.20
2018-01-21T16:20:20.714Z,5.30
2018-01-21T16:22:47.127Z,5.20
2018-01-21T16:25:13.454Z,5.30
2018-01-21T16:27:44.297Z,5.50
2018-01-21T16:30:12.638Z,5.40
2018-01-21T16:32:39.038Z,5.50
2018-01-21T16:35:07.441Z,5.60
2018-01-21T16:37:49.102Z,5.60
2018-01-21T16:40:15.406Z,5.40
2018-01-21T16:42:41.707Z,5.40
2018-01-21T16:45:07.916Z,5.40
2018-01-21T16:47:34.137Z,5.50
2018-01-21T16:50:00.432Z,5.20
2018-01-21T16:52:26.623Z,5.40
2018-01-21T16:54:52.926Z,5.20
2018-01-21T16:57:19.113Z,5.30
2018-01-21T16:59:45.491Z,4.90
2018-01-21T17:02:11.748Z,4.90
2018-01-21T17:04:41.069Z,4.80
2018-01-21T17:07:08.143Z,4.50
2018-01-21T17:09:34.358Z,4.60
2018-01-21T17:12:01.602Z,4.40
2018-01-21T17:14:27.857Z,4.50
2018-01-21T17:17:18.043Z,4.30
2018-01-21T17:19:55.079Z,4.30
2018-01-21T17:22:24.630Z,4.20
2018-01-21T17:24:54.023Z,4.20
2018-01-21T17:27:24.331Z,4.20
2018-01-21T17:30:03.700Z,4.30
2018-01-21T17:32:44.662Z,3.80
2018-01-21T17:38:17.220Z,3.60
2018-01-21T17:40:47.914Z,3.70
2018-01-21T17:43:18.054Z,4.00
2018-01-21T17:45:47.420Z,3.70
2018-01-21T17:48:21.677Z,3.80
2018-01-21T17:50:48.205Z,3.60
2018-01-21T17:53:14.936Z,3.60
2018-01-21T17:55:43.621Z,3.30
2018-01-21T18:01:10.292Z,3.20
2018-01-21T18:03:36.950Z,3.50
2018-01-21T18:06:08.910Z,3.30
2018-01-21T18:08:40.434Z,3.30
2018-01-21T18:11:07.351Z,3.10
2018-01-21T18:13:34.091Z,3.30
2018-01-21T18:16:02.064Z,3.20
2018-01-21T18:18:28.627Z,3.20
2018-01-21T18:20:55.120Z,3.10
2018-01-21T18:23:21.601Z,3.40
2018-01-21T18:25:47.974Z,3.40
2018-01-21T18:28:16.228Z,3.50
2018-01-21T18:30:42.621Z,3.50
2018-01-21T18:33:09.277Z,3.30
2018-01-21T18:35:35.887Z,3.20
2018-01-21T18:38:02.729Z,3.20
2018-01-21T18:40:29.259Z,2.70
2018-01-21T18:42:56.813Z,3.20
2018-01-21T18:45:23.262Z,3.20
2018-01-21T18:47:50.902Z,3.20
2018-01-21T18:50:17.518Z,3.10
2018-01-21T18:52:44.122Z,3.10
2018-01-21T18:55:10.554Z,2.90
2018-01-21T18:57:37.079Z,3.10
2018-01-21T19:00:03.580Z,3.40
2018-01-21T19:02:30.969Z,3.20
2018-01-21T19:04:58.167Z,3.30
2018-01-21T19:07:24.619Z,3.30
2018-01-21T19:09:50.983Z,3.40
2018-01-21T19:12:18.301Z,3.30
2018-01-21T19:14:44.846Z,3.30
2018-01-21T19:17:11.228Z,3.30
2018-01-21T19:19:37.684Z,3.20
2018-01-21T19:22:04.054Z,3.20
2018-01-21T19:24:30.497Z,3.20
2018-01-21T19:26:57.694Z,3.10
2018-01-21T19:29:24.087Z,3.30
2018-01-21T19:31:50.620Z,3.00
2018-01-21T19:34:19.141Z,3.00
2018-01-21T19:36:45.672Z,3.00
2018-01-21T19:39:12.169Z,3.20
2018-01-21T19:41:39.584Z,3.00
2018-01-21T19:44:24.827Z,2.80
2018-01-21T19:46:51.266Z,3.20
2018-01-21T19:49:18.534Z,3.10
2018-01-21T19:51:44.977Z,3.10
2018-01-21T19:54:11.867Z,3.00
2018-01-21T19:56:38.389Z,3.00
2018-01-21T19:59:04.829Z,3.00
2018-01-21T20:01:31.339Z,2.80
2018-01-21T20:03:57.792Z,2.80
2018-01-21T20:06:25.169Z,2.80
2018-01-21T20:08:51.896Z,2.60
2018-01-21T20:11:18.392Z,2.80
2018-01-21T20:13:44.795Z,2.70
2018-01-21T20:16:11.220Z,3.10
2018-01-21T20:18:37.608Z,2.90
2018-01-21T20:21:03.955Z,2.70
2018-01-21T20:23:30.510Z,2.90
2018-01-21T20:25:57.138Z,2.70
2018-01-21T20:28:23.706Z,2.90
2018-01-21T20:30:50.079Z,2.80
2018-01-21T20:33:16.512Z,2.90
2018-01-21T20:35:42.869Z,2.90
2018-01-21T20:38:09.235Z,3.00
2018-01-21T20:40:36.732Z,2.80
2018-01-21T20:43:07.091Z,2.80
2018-01-21T20:45:44.192Z,2.80
2018-01-21T20:48:10.805Z,2.90
2018-01-21T20:50:37.320Z,2.90
2018-01-21T20:53:10.462Z,2.80
2018-01-21T20:55:36.873Z,2.80
2018-01-21T20:58:03.280Z,2.90
2018-01-21T21:00:29.723Z,2.50
2018-01-21T21:03:09.043Z,3.00
2018-01-21T21:05:41.960Z,3.10
2018-01-21T21:08:08.360Z,3.00
2018-01-21T21:10:34.805Z,3.00
2018-01-21T21:13:01.257Z,3.10
2018-01-21T21:15:27.664Z,2.90
2018-01-21T21:17:54.032Z,3.00
2018-01-21T21:20:20.524Z,3.00
2018-01-21T21:22:47.173Z,3.10
2018-01-21T21:25:14.155Z,3.10
2018-01-21T21:27:40.579Z,3.10
2018-01-21T21:30:07.035Z,3.20
2018-01-21T21:32:33.388Z,3.20
2018-01-21T21:34:59.829Z,3.00
2018-01-21T21:37:26.346Z,3.10
2018-01-21T21:39:52.715Z,3.00
2018-01-21T21:42:19.154Z,3.00
2018-01-21T21:44:46.542Z,3.20
2018-01-21T21:47:12.944Z,3.00
2018-01-21T21:49:39.621Z,3.30
2018-01-21T21:52:06.050Z,3.30
2018-01-21T21:54:33.247Z,3.30
2018-01-21T21:56:59.937Z,3.20
2018-01-21T21:59:26.823Z,3.30
2018-01-21T22:01:53.247Z,3.10
2018-01-21T22:04:19.638Z,3.20
2018-01-21T22:06:46.159Z,3.40
2018-01-21T22:09:13.404Z,3.10
2018-01-21T22:11:39.966Z,3.30
2018-01-21T22:14:06.365Z,3.10
2018-01-21T22:16:32.753Z,3.20
2018-01-21T22:19:00.150Z,3.10
2018-01-21T22:21:26.589Z,3.40
2018-01-21T22:23:53.003Z,3.00
2018-01-21T22:26:19.419Z,3.70
2018-01-21T22:28:45.796Z,3.30
2018-01-21T22:31:13.166Z,3.70
2018-01-21T22:33:40.351Z,3.20
2018-01-21T22:36:07.014Z,3.40
2018-01-21T22:38:33.455Z,3.40
2018-01-21T22:40:59.994Z,3.30
2018-01-21T22:43:27.558Z,3.50
2018-01-21T22:45:54.086Z,3.50
2018-01-21T22:48:20.523Z,3.50
2018-01-21T22:50:47.071Z,3.40
2018-01-21T22:53:13.572Z,3.60
2018-01-21T22:55:40.043Z,3.60
2018-01-21T22:58:06.592Z,3.50
2018-01-21T23:00:32.998Z,3.70
2018-01-21T23:02:59.726Z,3.70
2018-01-21T23:05:26.301Z,3.80
2018-01-21T23:07:52.709Z,3.80
2018-01-21T23:10:19.996Z,3.60
2018-01-21T23:12:46.451Z,3.80
2018-01-21T23:15:12.921Z,3.90
2018-01-21T23:17:42.252Z,3.80
2018-01-21T23:20:08.665Z,3.50
2018-01-21T23:22:35.899Z,3.80
2018-01-21T23:25:02.379Z,4.00
2018-01-21T23:27:28.843Z,3.60
2018-01-21T23:29:55.230Z,4.00
2018-01-21T23:32:21.722Z,4.10
2018-01-21T23:34:48.172Z,3.70
2018-01-21T23:37:15.380Z,3.50
2018-01-21T23:39:44.432Z,3.50
2018-01-21T23:42:10.873Z,3.50
2018-01-21T23:44:56.218Z,3.50
2018-01-21T23:47:22.984Z,3.40
2018-01-21T23:49:50.431Z,3.20
2018-01-21T23:58:37.605Z,3.40
